Archival Weather

Glendale Muni

Glendale, Arizona (KGEU)

Report from: Wednesday, December 6, 2023 10:47 AM MST
Current time: Wednesday, April 24, 2024 12:15 PM MST

Current weather – Weather history – Daily summaries
Weather forecast

Temperature21.0°C (69.8°F)
Dew point1.0°C (33.8°F)
Winds Calm
Visibility10 mi. (16.1 km)
Clouds Few clouds 20,000 ft. (6,096 m)
Altimeter30.10 in.Hg (1019 mB)
Relative humidity26 %
Density altitude600 ft. (183 m)
Flight conditions Visual Meteorological Conditions
Raw dataKGEU 061747Z 00000KT 10SM FEW200 21/01 A3010
An error has occurred. This application may no longer respond until reloaded. Reload 🗙